createdAt,value
2022-08-26T00:00:37.497Z,63.60
2022-08-26T00:03:39.170Z,63.80
2022-08-26T00:06:42.576Z,63.70
2022-08-26T00:09:49.958Z,63.70
2022-08-26T00:12:51.599Z,63.70
2022-08-26T00:15:53.576Z,63.70
2022-08-26T00:18:54.988Z,63.80
2022-08-26T00:21:56.343Z,63.80
2022-08-26T00:24:58.009Z,63.70
2022-08-26T00:28:00.335Z,63.90
2022-08-26T00:31:02.343Z,63.60
2022-08-26T00:34:04.878Z,63.80
2022-08-26T00:37:09.473Z,63.70
2022-08-26T00:40:15.048Z,63.80
2022-08-26T00:43:16.766Z,63.60
2022-08-26T00:46:20.891Z,63.80
2022-08-26T00:49:25.015Z,63.80
2022-08-26T00:52:26.574Z,63.80
2022-08-26T00:55:38.001Z,63.90
2022-08-26T00:58:42.323Z,63.80
2022-08-26T01:01:45.947Z,63.70
2022-08-26T01:04:49.424Z,63.50
2022-08-26T01:07:57.439Z,63.90
2022-08-26T01:10:59.549Z,63.70
2022-08-26T01:14:05.574Z,63.60
2022-08-26T01:17:08.709Z,63.70
2022-08-26T01:20:17.699Z,63.60
2022-08-26T01:23:19.568Z,63.80
2022-08-26T01:26:25.151Z,63.80
2022-08-26T01:29:28.852Z,63.80
2022-08-26T01:32:31.597Z,63.60
2022-08-26T01:35:33.686Z,63.60
2022-08-26T01:38:35.537Z,64.00
2022-08-26T01:41:38.247Z,63.60
2022-08-26T01:44:41.696Z,63.80
2022-08-26T01:47:43.366Z,63.70
2022-08-26T01:50:45.407Z,63.50
2022-08-26T01:53:47.324Z,63.60
2022-08-26T01:56:49.415Z,63.50
2022-08-26T01:59:51.574Z,63.80
2022-08-26T02:03:14.706Z,63.40
2022-08-26T02:06:18.893Z,63.70
2022-08-26T02:09:21.773Z,63.60
2022-08-26T02:12:24.063Z,63.50
2022-08-26T02:15:32.577Z,63.50
2022-08-26T02:18:34.783Z,63.60
2022-08-26T02:21:37.772Z,63.60
2022-08-26T02:24:48.239Z,63.80
2022-08-26T02:27:50.054Z,63.50
2022-08-26T02:30:51.421Z,63.60
2022-08-26T02:33:52.741Z,63.60
2022-08-26T02:36:56.271Z,63.70
2022-08-26T02:39:58.267Z,63.70
2022-08-26T02:42:59.620Z,63.70
2022-08-26T02:46:02.411Z,63.70
2022-08-26T02:49:04.259Z,63.70
2022-08-26T02:52:05.509Z,63.40
2022-08-26T02:55:07.687Z,63.60
2022-08-26T02:58:09.763Z,63.40
2022-08-26T03:01:18.823Z,63.40
2022-08-26T03:04:20.540Z,63.60
2022-08-26T03:07:27.478Z,63.60
2022-08-26T03:10:31.327Z,63.50
2022-08-26T03:13:35.467Z,63.60
2022-08-26T03:16:37.031Z,63.50
2022-08-26T03:19:38.377Z,63.70
2022-08-26T03:22:39.668Z,63.50
2022-08-26T03:25:41.466Z,63.60
2022-08-26T03:28:57.456Z,63.50
2022-08-26T03:32:00.796Z,63.70
2022-08-26T03:35:02.190Z,63.60
2022-08-26T03:38:04.144Z,63.70
2022-08-26T03:41:07.565Z,63.50
2022-08-26T03:44:09.658Z,63.50
2022-08-26T03:47:11.183Z,63.60
2022-08-26T03:50:13.641Z,63.40
2022-08-26T03:53:15.064Z,63.50
2022-08-26T03:56:17.074Z,63.50
2022-08-26T03:59:18.733Z,63.60
2022-08-26T04:02:20.003Z,63.70
2022-08-26T04:05:22.214Z,63.60
2022-08-26T04:08:28.092Z,63.60
2022-08-26T04:11:31.255Z,63.60
2022-08-26T04:14:36.692Z,63.40
2022-08-26T04:17:40.638Z,63.40
2022-08-26T04:20:41.991Z,63.40
2022-08-26T04:23:47.295Z,63.60
2022-08-26T04:26:50.290Z,63.50
2022-08-26T04:29:55.348Z,63.30
2022-08-26T04:32:56.822Z,63.50
2022-08-26T04:35:59.569Z,63.30
2022-08-26T04:39:04.830Z,63.40
2022-08-26T04:42:06.820Z,63.40
2022-08-26T04:45:09.930Z,63.40
2022-08-26T04:48:12.068Z,63.40
2022-08-26T04:51:18.549Z,63.40
2022-08-26T04:54:20.178Z,63.40
2022-08-26T04:57:22.477Z,63.40
2022-08-26T05:00:23.827Z,63.20
2022-08-26T05:03:30.537Z,63.60
2022-08-26T05:06:32.775Z,63.30
2022-08-26T05:09:42.816Z,63.40
2022-08-26T05:12:44.747Z,63.40
2022-08-26T05:15:46.966Z,63.50
2022-08-26T05:18:48.616Z,63.40
2022-08-26T05:21:50.237Z,63.40
2022-08-26T05:24:51.596Z,63.60
2022-08-26T05:27:53.520Z,63.20
2022-08-26T05:30:55.517Z,63.60
2022-08-26T05:33:56.964Z,63.50
2022-08-26T05:36:58.264Z,63.20
2022-08-26T05:40:05.286Z,63.30
2022-08-26T05:43:09.733Z,63.30
2022-08-26T05:46:11.570Z,63.30
2022-08-26T05:49:13.973Z,63.20
2022-08-26T05:52:15.513Z,63.40
2022-08-26T05:55:17.362Z,63.40
2022-08-26T05:58:21.247Z,63.40
2022-08-26T06:01:24.786Z,63.40
2022-08-26T06:04:26.965Z,63.40
2022-08-26T06:07:43.852Z,63.90
2022-08-26T06:10:45.954Z,63.40
2022-08-26T06:13:48.437Z,63.20
2022-08-26T06:16:49.700Z,63.50
2022-08-26T06:19:51.600Z,63.40
2022-08-26T06:23:07.663Z,63.30
2022-08-26T06:26:09.779Z,63.10
2022-08-26T06:29:12.970Z,63.20
2022-08-26T06:32:24.930Z,63.30
2022-08-26T06:35:26.400Z,63.20
2022-08-26T06:38:27.808Z,63.20
2022-08-26T06:41:31.308Z,63.20
2022-08-26T06:44:33.437Z,63.20
2022-08-26T06:47:35.769Z,63.20
2022-08-26T06:50:37.238Z,63.20
2022-08-26T06:53:41.034Z,63.00
2022-08-26T06:56:43.032Z,63.00
2022-08-26T06:59:45.037Z,62.90
2022-08-26T07:02:47.137Z,62.90
2022-08-26T07:05:48.767Z,63.00
2022-08-26T07:08:51.556Z,63.00
2022-08-26T07:11:55.391Z,62.90
2022-08-26T07:14:57.405Z,62.90
2022-08-26T07:17:59.045Z,62.80
2022-08-26T07:21:01.044Z,62.80
2022-08-26T07:24:02.733Z,62.60
2022-08-26T07:27:05.500Z,62.40
2022-08-26T07:30:08.705Z,62.60
2022-08-26T07:33:10.191Z,62.50
2022-08-26T07:36:12.774Z,62.50
2022-08-26T07:39:14.213Z,62.50
2022-08-26T07:42:18.523Z,62.40
2022-08-26T07:45:20.542Z,62.30
2022-08-26T07:48:22.772Z,62.20
2022-08-26T07:51:24.603Z,62.30
2022-08-26T07:54:26.687Z,62.30
2022-08-26T07:57:28.640Z,62.30
2022-08-26T08:00:34.136Z,62.30
2022-08-26T08:03:35.630Z,62.10
2022-08-26T08:06:37.780Z,62.10
2022-08-26T08:09:40.597Z,61.90
2022-08-26T08:12:42.629Z,62.00
2022-08-26T08:15:44.890Z,61.90
2022-08-26T08:18:46.569Z,61.90
2022-08-26T08:21:48.196Z,61.90
2022-08-26T08:24:49.670Z,61.80
2022-08-26T08:27:51.752Z,61.80
2022-08-26T08:30:53.833Z,61.80
2022-08-26T08:33:55.259Z,61.50
2022-08-26T08:36:57.007Z,61.60
2022-08-26T08:39:59.068Z,61.60
2022-08-26T08:43:02.889Z,61.70
2022-08-26T08:46:09.731Z,61.50
2022-08-26T08:49:13.316Z,61.60
2022-08-26T08:52:21.216Z,61.50
2022-08-26T08:55:23.595Z,61.40
2022-08-26T08:58:31.438Z,61.40
2022-08-26T09:01:41.696Z,61.40
2022-08-26T09:04:53.205Z,61.50
2022-08-26T09:07:56.875Z,61.30
2022-08-26T09:11:00.254Z,61.50
2022-08-26T09:14:04.706Z,61.40
2022-08-26T09:17:11.565Z,61.30
2022-08-26T09:20:17.683Z,61.40
2022-08-26T09:23:19.246Z,61.40
2022-08-26T09:26:25.890Z,61.20
2022-08-26T09:29:31.543Z,61.30
2022-08-26T09:32:34.444Z,61.30
2022-08-26T09:35:37.006Z,60.90
2022-08-26T09:38:40.622Z,61.50
2022-08-26T09:41:43.502Z,61.20
2022-08-26T09:44:55.913Z,61.10
2022-08-26T09:47:58.003Z,61.20
2022-08-26T09:51:03.778Z,61.20
2022-08-26T09:54:08.238Z,61.20
2022-08-26T09:57:11.831Z,61.20
2022-08-26T10:00:28.739Z,61.00
2022-08-26T10:03:32.759Z,61.60
2022-08-26T10:06:37.409Z,61.80
2022-08-26T10:09:42.246Z,61.00
2022-08-26T10:12:48.258Z,61.20
2022-08-26T10:15:55.288Z,61.00
2022-08-26T10:19:00.269Z,61.00
2022-08-26T10:22:03.629Z,60.80
2022-08-26T10:25:11.120Z,60.70
2022-08-26T10:28:21.560Z,60.90
2022-08-26T10:31:27.773Z,60.90
2022-08-26T10:34:30.828Z,60.80
2022-08-26T10:37:35.890Z,60.90
2022-08-26T10:40:50.492Z,60.80
2022-08-26T10:43:54.575Z,60.90
2022-08-26T10:46:59.499Z,60.80
2022-08-26T10:50:03.266Z,60.70
2022-08-26T10:53:07.661Z,60.80
2022-08-26T10:56:18.821Z,60.80
2022-08-26T10:59:23.253Z,60.60
2022-08-26T11:02:30.699Z,60.70
2022-08-26T11:05:32.674Z,60.70
2022-08-26T11:08:34.212Z,60.70
2022-08-26T11:11:46.820Z,60.60
2022-08-26T11:14:56.106Z,60.60
2022-08-26T11:18:01.536Z,60.70
2022-08-26T11:21:24.579Z,60.70
2022-08-26T11:24:42.692Z,60.70
2022-08-26T11:27:56.721Z,60.60
2022-08-26T11:30:58.481Z,60.50
2022-08-26T11:34:00.393Z,60.70
2022-08-26T11:37:04.241Z,60.60
2022-08-26T11:40:07.035Z,60.60
2022-08-26T11:43:13.590Z,60.60
2022-08-26T11:46:22.910Z,60.60
2022-08-26T11:49:27.569Z,60.50
2022-08-26T11:52:29.458Z,60.50
2022-08-26T11:55:32.281Z,60.50
2022-08-26T11:58:34.388Z,60.60
2022-08-26T12:01:37.284Z,60.40
2022-08-26T12:04:40.578Z,60.40
2022-08-26T12:07:42.794Z,61.20
2022-08-26T12:10:44.871Z,60.50
2022-08-26T12:13:53.107Z,60.40
2022-08-26T12:16:54.531Z,60.40
2022-08-26T12:20:00.277Z,60.40
2022-08-26T12:23:04.156Z,60.30
2022-08-26T12:26:10.388Z,60.10
2022-08-26T12:29:20.060Z,60.30
2022-08-26T12:32:29.655Z,60.30
2022-08-26T12:35:31.454Z,60.30
2022-08-26T12:38:36.061Z,60.20
2022-08-26T12:41:41.015Z,60.20
2022-08-26T12:44:53.991Z,60.20
2022-08-26T12:47:58.415Z,60.20
2022-08-26T12:51:00.353Z,60.00
2022-08-26T12:54:05.912Z,60.20
2022-08-26T12:57:08.912Z,60.00
2022-08-26T13:00:23.064Z,60.00
2022-08-26T13:03:31.595Z,60.00
2022-08-26T13:06:34.141Z,60.00
2022-08-26T13:09:36.254Z,59.90
2022-08-26T13:12:37.691Z,59.80
2022-08-26T13:15:39.172Z,59.80
2022-08-26T13:18:40.570Z,59.80
2022-08-26T13:21:43.990Z,60.00
2022-08-26T13:24:45.939Z,59.80
2022-08-26T13:27:48.090Z,59.70
2022-08-26T13:30:49.502Z,59.80
2022-08-26T13:33:50.838Z,59.90
2022-08-26T13:36:53.758Z,59.80
2022-08-26T13:39:55.958Z,59.70
2022-08-26T13:42:57.328Z,59.70
2022-08-26T13:46:00.659Z,59.80
2022-08-26T13:49:02.449Z,59.70
2022-08-26T13:52:04.248Z,59.70
2022-08-26T13:55:07.077Z,59.80
2022-08-26T13:58:08.579Z,59.60
2022-08-26T14:01:10.229Z,59.70
2022-08-26T14:04:11.616Z,59.70
2022-08-26T14:07:12.906Z,59.60
2022-08-26T14:10:15.007Z,59.60
2022-08-26T14:13:17.375Z,59.50
2022-08-26T14:16:21.101Z,59.50
2022-08-26T14:19:24.452Z,59.50
2022-08-26T14:22:26.133Z,59.50
2022-08-26T14:25:28.337Z,59.30
2022-08-26T14:28:29.904Z,59.50
2022-08-26T14:31:32.242Z,59.40
2022-08-26T14:34:33.604Z,59.30
2022-08-26T14:37:35.012Z,59.30
2022-08-26T14:40:39.346Z,59.20
2022-08-26T14:43:43.232Z,59.20
2022-08-26T14:46:45.731Z,59.50
2022-08-26T14:49:47.195Z,59.40
2022-08-26T14:53:02.391Z,59.30
2022-08-26T14:56:04.430Z,59.20
2022-08-26T14:59:07.214Z,59.10
2022-08-26T15:02:09.881Z,59.20
2022-08-26T15:05:15.009Z,59.20
2022-08-26T15:08:16.349Z,59.20
2022-08-26T15:11:18.459Z,59.30
2022-08-26T15:14:20.238Z,59.20
2022-08-26T15:17:21.578Z,59.10
2022-08-26T15:20:22.994Z,59.10
2022-08-26T15:23:24.812Z,59.00
2022-08-26T15:26:27.678Z,59.00
2022-08-26T15:29:29.047Z,59.00
2022-08-26T15:32:30.478Z,59.00
2022-08-26T15:35:33.109Z,58.90
2022-08-26T15:38:41.382Z,59.00
2022-08-26T15:41:43.919Z,58.90
2022-08-26T15:44:45.656Z,58.90
2022-08-26T15:48:10.888Z,58.80
2022-08-26T15:51:17.751Z,58.70
2022-08-26T15:54:20.941Z,58.80
2022-08-26T15:57:22.894Z,58.80
2022-08-26T16:00:24.194Z,58.60
2022-08-26T16:03:28.718Z,58.70
2022-08-26T16:06:32.363Z,58.50
2022-08-26T16:09:33.725Z,58.70
2022-08-26T16:12:35.886Z,58.50
2022-08-26T16:15:37.461Z,58.50
2022-08-26T16:18:38.893Z,58.50
2022-08-26T16:21:40.782Z,58.50
2022-08-26T16:24:42.232Z,58.50
2022-08-26T16:27:44.060Z,58.50
2022-08-26T16:30:45.985Z,58.50
2022-08-26T16:33:47.442Z,58.30
2022-08-26T16:36:48.925Z,58.30
2022-08-26T16:39:50.249Z,58.20
2022-08-26T16:42:52.250Z,58.00
2022-08-26T16:45:53.560Z,57.90
2022-08-26T16:48:55.783Z,57.90
2022-08-26T16:51:57.064Z,57.80
2022-08-26T16:54:58.482Z,57.80
2022-08-26T16:58:00.398Z,57.80
2022-08-26T17:01:01.727Z,57.80
2022-08-26T17:04:03.399Z,57.80
2022-08-26T17:07:05.247Z,57.50
2022-08-26T17:10:07.147Z,57.50
2022-08-26T17:13:09.264Z,57.40
2022-08-26T17:16:11.766Z,57.60
2022-08-26T17:19:13.186Z,57.20
2022-08-26T17:22:14.947Z,57.40
2022-08-26T17:25:21.136Z,57.20
2022-08-26T17:28:22.978Z,57.00
2022-08-26T17:31:24.568Z,57.10
2022-08-26T17:34:26.174Z,57.10
2022-08-26T17:37:27.715Z,56.90
2022-08-26T17:40:30.711Z,56.90
2022-08-26T17:43:33.173Z,56.90
2022-08-26T17:46:38.226Z,57.20
2022-08-26T17:49:40.013Z,56.80
2022-08-26T17:52:41.273Z,56.90
2022-08-26T17:55:45.680Z,56.90
2022-08-26T17:58:51.069Z,57.10
2022-08-26T18:01:53.192Z,56.90
2022-08-26T18:04:57.768Z,56.80
2022-08-26T18:07:59.271Z,56.70
2022-08-26T18:11:00.630Z,56.80
2022-08-26T18:14:02.994Z,56.70
2022-08-26T18:17:04.383Z,56.70
2022-08-26T18:20:06.522Z,56.60
2022-08-26T18:23:08.162Z,56.70
2022-08-26T18:26:11.339Z,56.60
2022-08-26T18:29:15.442Z,56.60
2022-08-26T18:32:17.009Z,57.20
2022-08-26T18:35:20.208Z,56.70
2022-08-26T18:38:21.628Z,56.40
2022-08-26T18:41:24.618Z,56.50
2022-08-26T18:44:26.559Z,56.60
2022-08-26T18:47:29.148Z,56.70
2022-08-26T18:50:30.497Z,56.60
2022-08-26T18:53:32.246Z,56.60
2022-08-26T18:56:37.196Z,56.60
2022-08-26T18:59:40.036Z,56.60
2022-08-26T19:02:42.034Z,56.70
2022-08-26T19:05:51.339Z,56.70
2022-08-26T19:08:55.849Z,56.90
2022-08-26T19:11:59.638Z,56.60
2022-08-26T19:15:03.865Z,56.70
2022-08-26T19:18:05.436Z,56.80
2022-08-26T19:21:06.965Z,57.00
2022-08-26T19:24:14.294Z,56.70
2022-08-26T19:27:15.765Z,57.50
2022-08-26T19:30:17.886Z,57.00
2022-08-26T19:33:19.653Z,56.90
2022-08-26T19:36:22.698Z,56.90
2022-08-26T19:39:24.443Z,56.80
2022-08-26T19:42:25.945Z,57.00
2022-08-26T19:45:28.518Z,57.00
2022-08-26T19:48:29.782Z,56.90
2022-08-26T19:51:32.061Z,57.00
2022-08-26T19:54:33.743Z,57.10
2022-08-26T19:57:35.651Z,57.10
2022-08-26T20:00:38.907Z,56.90
2022-08-26T20:03:41.160Z,57.20
2022-08-26T20:06:45.636Z,56.90
2022-08-26T20:09:52.462Z,57.10
2022-08-26T20:12:53.783Z,56.80
2022-08-26T20:15:55.940Z,57.20
2022-08-26T20:19:11.979Z,56.90
2022-08-26T20:22:13.648Z,57.00
2022-08-26T20:25:15.919Z,57.00
2022-08-26T20:28:18.498Z,57.10
2022-08-26T20:31:20.507Z,57.10
2022-08-26T20:34:21.810Z,57.20
2022-08-26T20:37:23.723Z,57.20
2022-08-26T20:40:25.214Z,57.10
2022-08-26T20:43:26.656Z,57.00
2022-08-26T20:46:28.826Z,57.10
2022-08-26T20:49:31.257Z,57.30
2022-08-26T20:52:34.933Z,57.20
2022-08-26T20:55:36.225Z,57.20
2022-08-26T20:58:38.417Z,57.30
2022-08-26T21:01:42.034Z,57.20
2022-08-26T21:04:43.840Z,57.20
2022-08-26T21:07:48.417Z,57.30
2022-08-26T21:10:50.743Z,57.40
2022-08-26T21:14:16.835Z,57.40
2022-08-26T21:17:15.504Z,57.40
2022-08-26T21:20:16.873Z,57.30
2022-08-26T21:23:18.455Z,57.40
2022-08-26T21:26:20.311Z,57.60
2022-08-26T21:29:21.824Z,57.40
2022-08-26T21:32:23.692Z,57.50
2022-08-26T21:35:24.980Z,57.60
2022-08-26T21:38:30.290Z,57.50
2022-08-26T21:41:31.621Z,57.60
2022-08-26T21:44:33.670Z,57.60
2022-08-26T21:47:35.816Z,57.90
2022-08-26T21:50:37.534Z,57.70
2022-08-26T21:53:39.108Z,57.70
2022-08-26T21:56:43.309Z,57.60
2022-08-26T21:59:44.791Z,57.80
2022-08-26T22:02:49.438Z,57.70
2022-08-26T22:05:50.788Z,57.70
2022-08-26T22:08:52.879Z,57.70
2022-08-26T22:11:55.728Z,57.80
2022-08-26T22:14:57.056Z,57.70
2022-08-26T22:17:59.064Z,57.60
2022-08-26T22:21:01.888Z,57.60
2022-08-26T22:24:05.285Z,57.60
2022-08-26T22:27:06.616Z,57.60
2022-08-26T22:30:11.704Z,57.50
2022-08-26T22:33:14.514Z,57.50
2022-08-26T22:36:17.075Z,57.60
2022-08-26T22:39:22.858Z,57.50
2022-08-26T22:42:24.167Z,57.50
2022-08-26T22:45:25.462Z,57.40
2022-08-26T22:48:30.643Z,57.70
2022-08-26T22:51:32.533Z,57.60
2022-08-26T22:54:34.064Z,57.50
2022-08-26T22:57:35.402Z,57.70
2022-08-26T23:00:40.753Z,57.70
2022-08-26T23:03:43.081Z,57.60
2022-08-26T23:06:47.841Z,57.50
2022-08-26T23:09:49.462Z,57.40
2022-08-26T23:12:51.574Z,57.60
2022-08-26T23:15:59.370Z,57.50
2022-08-26T23:19:01.440Z,57.60
2022-08-26T23:22:03.259Z,57.90
2022-08-26T23:25:07.645Z,57.70
2022-08-26T23:28:09.407Z,57.60
2022-08-26T23:31:10.957Z,57.80
2022-08-26T23:34:27.801Z,57.70
2022-08-26T23:37:32.888Z,57.80
2022-08-26T23:40:37.795Z,57.70
2022-08-26T23:43:39.235Z,57.90
2022-08-26T23:46:41.798Z,57.70
2022-08-26T23:49:46.843Z,57.80
2022-08-26T23:53:02.455Z,57.70
2022-08-26T23:56:03.800Z,57.70
2022-08-26T23:59:05.279Z,57.70
